Time;durP1;ratioP1;P1;durP2;ratioP2;P2;SDS_P1;SDS_P2;PMS_P1;PMS_P2;Temp;Humidity;BMP_temperature;BMP_pressure;BME280_temperature;BME280_humidity;BME280_pressure;Samples;Min_cycle;Max_cycle;Signal;HPM_P1;HPM_P2
2021/08/21 00:01:04;;;;;;;5.60;2.88;;;;;;;13.25;96.11;100541.44;5013063;28;20021;-86
2021/08/21 00:03:30;;;;;;;7.43;3.55;;;;;;;13.14;95.81;100515.84;5026844;28;20473;-86
2021/08/21 00:05:55;;;;;;;7.80;4.13;;;;;;;13.36;96.70;100532.81;5020755;28;20088;-84
2021/08/21 00:08:21;;;;;;;7.43;3.20;;;;;;;13.39;96.31;100529.72;5016753;28;20033;-86
2021/08/21 00:10:47;;;;;;;11.20;3.78;;;;;;;13.39;96.53;100535.97;5029331;28;20029;-87
2021/08/21 00:13:13;;;;;;;8.88;3.85;;;;;;;13.43;96.39;100536.38;5028303;28;20506;-86
2021/08/21 00:15:38;;;;;;;5.70;3.42;;;;;;;13.45;96.38;100541.59;5027019;28;20030;-86
2021/08/21 00:18:04;;;;;;;8.82;3.67;;;;;;;13.44;96.84;100537.22;5013429;28;20025;-85
2021/08/21 00:20:30;;;;;;;8.40;3.95;;;;;;;13.48;96.89;100555.53;5014710;28;20027;-87
2021/08/21 00:22:55;;;;;;;12.30;4.43;;;;;;;13.52;97.10;100556.81;5019722;28;20099;-84
2021/08/21 00:25:21;;;;;;;8.23;4.38;;;;;;;13.44;97.04;100548.00;5012325;28;20487;-85
2021/08/21 00:27:47;;;;;;;11.00;4.40;;;;;;;13.39;97.07;100524.31;5020648;28;20028;-86
2021/08/21 00:30:13;;;;;;;11.25;5.20;;;;;;;13.72;97.21;100561.47;5029382;28;20030;-87
2021/08/21 00:32:39;;;;;;;11.43;4.95;;;;;;;13.73;97.20;100555.00;5011072;28;20768;-85
2021/08/21 00:35:07;;;;;;;8.85;4.95;;;;;;;13.81;97.07;100557.53;5024897;28;20749;-87
2021/08/21 00:37:32;;;;;;;11.27;4.90;;;;;;;13.79;96.97;100552.34;5015834;28;20116;-83
2021/08/21 00:39:58;;;;;;;14.43;6.45;;;;;;;13.83;97.02;100547.34;4996095;28;20115;-86
2021/08/21 00:42:24;;;;;;;15.25;5.57;;;;;;;13.87;97.05;100551.34;5031054;28;20041;-87
2021/08/21 00:44:49;;;;;;;12.63;5.72;;;;;;;13.89;97.08;100545.72;5031671;28;20496;-84
2021/08/21 00:47:17;;;;;;;10.10;5.53;;;;;;;13.92;97.24;100559.69;5034022;28;20419;-87
2021/08/21 00:49:48;;;;;;;10.82;5.43;;;;;;;13.97;97.18;100551.78;5016622;28;20064;-85
2021/08/21 00:52:25;;;;;;;11.57;5.25;;;;;;;13.98;96.91;100550.75;5030217;28;20814;-87
2021/08/21 00:54:52;;;;;;;8.60;4.50;;;;;;;13.91;96.70;100536.38;5016732;28;20029;-86
2021/08/21 00:57:19;;;;;;;11.60;4.95;;;;;;;14.06;96.66;100555.13;5017535;28;20400;-87
2021/08/21 00:59:46;;;;;;;10.85;4.32;;;;;;;14.11;96.77;100549.94;5016526;28;20052;-87
2021/08/21 01:02:13;;;;;;;12.30;5.03;;;;;;;13.98;96.61;100531.81;5016254;28;20033;-86
2021/08/21 01:04:51;;;;;;;10.40;4.50;;;;;;;14.17;96.65;100554.53;5032995;28;20033;-87
2021/08/21 01:07:22;;;;;;;12.05;5.38;;;;;;;14.21;96.39;100549.53;5012272;28;20021;-87
2021/08/21 01:09:48;;;;;;;8.80;5.30;;;;;;;14.13;96.24;100531.66;5021539;28;20150;-87
2021/08/21 01:12:20;;;;;;;10.93;4.55;;;;;;;14.19;96.43;100544.34;5015939;28;20033;-85
2021/08/21 01:14:47;;;;;;;13.77;5.88;;;;;;;14.07;96.46;100522.47;4993326;28;20025;-86
2021/08/21 01:17:13;;;;;;;10.05;4.70;;;;;;;14.24;96.45;100554.56;5015782;28;20084;-86
2021/08/21 01:19:42;;;;;;;8.98;4.85;;;;;;;14.28;96.47;100544.97;5031600;28;20388;-86
2021/08/21 01:22:09;;;;;;;10.48;4.68;;;;;;;14.14;96.34;100517.09;5031624;28;20696;-86
2021/08/21 01:24:36;;;;;;;11.52;5.70;;;;;;;14.25;96.19;100540.81;5012360;28;20113;-86
2021/08/21 01:27:02;;;;;;;11.30;5.07;;;;;;;14.20;96.39;100535.19;5015417;28;20109;-86
2021/08/21 01:29:28;;;;;;;10.10;4.72;;;;;;;14.11;96.22;100519.38;5008540;28;20032;-86
2021/08/21 01:31:54;;;;;;;12.13;4.95;;;;;;;14.20;96.41;100527.06;5012082;28;20033;-85
2021/08/21 01:34:20;;;;;;;12.73;5.28;;;;;;;14.18;96.34;100522.91;5033218;28;20025;-86
2021/08/21 01:36:47;;;;;;;9.25;5.22;;;;;;;14.11;96.25;100501.28;5018203;28;20022;-86
2021/08/21 01:39:25;;;;;;;14.18;4.68;;;;;;;14.20;96.19;100513.56;4996968;28;20432;-86
2021/08/21 01:41:51;;;;;;;9.65;5.03;;;;;;;14.05;96.07;100493.97;5021484;28;20026;-86
2021/08/21 01:44:17;;;;;;;11.05;5.28;;;;;;;14.09;96.07;100500.66;5025547;28;20022;-86
2021/08/21 01:46:47;;;;;;;13.20;4.85;;;;;;;14.11;96.15;100501.28;5012971;28;20030;-86
2021/08/21 01:49:14;;;;;;;7.13;4.47;;;;;;;14.00;96.05;100480.28;5020649;28;20030;-87
2021/08/21 01:51:41;;;;;;;12.60;4.53;;;;;;;14.13;96.23;100514.59;5028358;28;20857;-86
2021/08/21 01:54:09;;;;;;;8.25;4.72;;;;;;;14.05;96.57;100500.25;5011521;28;20072;-87
2021/08/21 01:56:46;;;;;;;8.63;5.22;;;;;;;14.07;96.52;100500.00;5030915;28;20033;-86
2021/08/21 01:59:37;;;;;;;12.63;5.10;;;;;;;14.16;96.46;100500.69;5030922;28;20081;-86
2021/08/21 02:02:04;;;;;;;13.50;4.97;;;;;;;14.17;96.53;100499.63;5024304;28;20107;-86
2021/08/21 02:04:32;;;;;;;6.47;4.30;;;;;;;14.17;96.47;100502.31;5008329;28;20068;-85
2021/08/21 02:06:57;;;;;;;14.27;4.57;;;;;;;14.16;96.31;100481.75;5013012;28;20025;-86
2021/08/21 02:09:25;;;;;;;9.25;4.70;;;;;;;14.08;96.32;100472.78;5023364;28;20017;-86
2021/08/21 02:11:52;;;;;;;8.82;4.35;;;;;;;14.19;96.26;100486.75;5014679;28;20030;-86
2021/08/21 02:14:19;;;;;;;8.38;4.18;;;;;;;14.13;96.31;100477.59;5023915;28;20033;-86
2021/08/21 02:16:49;;;;;;;13.05;4.80;;;;;;;14.09;96.23;100479.03;5003402;28;20029;-86
2021/08/21 02:19:14;;;;;;;9.60;4.65;;;;;;;14.06;96.63;100482.13;5013326;28;20034;-85
2021/08/21 02:21:40;;;;;;;8.55;4.80;;;;;;;14.07;96.70;100484.63;5030321;28;20588;-87
2021/08/21 02:24:07;;;;;;;8.93;4.40;;;;;;;14.11;96.46;100484.25;5011490;28;20430;-86
2021/08/21 02:26:40;;;;;;;9.23;4.78;;;;;;;14.10;96.56;100483.38;5026131;28;20029;-85
2021/08/21 02:29:07;;;;;;;10.45;4.78;;;;;;;14.04;96.72;100471.53;5025989;28;20025;-86
2021/08/21 02:31:34;;;;;;;11.15;4.88;;;;;;;14.03;96.54;100471.75;5013599;28;20124;-86
2021/08/21 02:33:59;;;;;;;11.93;4.55;;;;;;;14.02;96.77;100480.88;5010422;28;20029;-86
2021/08/21 02:36:25;;;;;;;11.23;4.55;;;;;;;13.99;96.84;100482.13;5026035;28;20029;-85
2021/08/21 02:38:51;;;;;;;10.07;4.55;;;;;;;13.83;96.66;100450.91;5027126;28;20065;-84
2021/08/21 02:41:17;;;;;;;10.05;4.43;;;;;;;13.98;96.93;100474.22;5006493;28;20154;-86
2021/08/21 02:43:42;;;;;;;13.57;5.10;;;;;;;13.85;97.00;100453.41;5009066;28;20040;-84
2021/08/21 02:46:08;;;;;;;9.23;4.03;;;;;;;13.95;97.01;100470.06;5010521;28;20037;-87
2021/08/21 02:48:34;;;;;;;14.23;4.90;;;;;;;14.00;96.92;100472.16;5020703;28;20076;-85
2021/08/21 02:50:59;;;;;;;12.27;4.80;;;;;;;13.95;96.89;100467.34;5011127;28;20083;-85
2021/08/21 02:53:25;;;;;;;10.18;4.72;;;;;;;13.77;97.09;100446.31;5030693;28;20072;-87
2021/08/21 02:55:50;;;;;;;11.38;4.90;;;;;;;13.76;96.92;100438.41;5011102;28;20766;-87
2021/08/21 02:58:16;;;;;;;19.95;5.78;;;;;;;13.80;97.03;100437.78;5020542;28;20034;-86
2021/08/21 03:00:42;;;;;;;13.90;5.05;;;;;;;13.88;97.12;100442.19;5010349;28;20029;-85
2021/08/21 03:03:09;;;;;;;10.90;4.60;;;;;;;13.99;97.14;100465.91;5013004;28;20032;-86
2021/08/21 03:05:34;;;;;;;8.93;4.25;;;;;;;13.96;96.96;100463.59;5005589;28;20026;-85
2021/08/21 03:08:00;;;;;;;11.63;5.05;;;;;;;13.81;97.21;100435.91;5021319;28;20037;-84
2021/08/21 03:10:26;;;;;;;12.15;4.60;;;;;;;13.98;97.12;100463.41;4997101;28;20048;-86
2021/08/21 03:12:51;;;;;;;18.75;6.22;;;;;;;13.96;97.27;100460.91;5030502;28;20029;-87
2021/08/21 03:15:17;;;;;;;9.65;5.05;;;;;;;13.76;96.92;100430.28;5014610;28;20036;-86
2021/08/21 03:17:43;;;;;;;12.95;5.22;;;;;;;13.93;96.74;100455.91;5009848;28;20026;-85
2021/08/21 03:20:09;;;;;;;16.13;6.03;;;;;;;13.93;96.94;100453.22;5013159;28;20071;-86
2021/08/21 03:22:35;;;;;;;23.08;7.38;;;;;;;13.94;97.00;100457.56;5030803;28;20026;-86
2021/08/21 03:25:00;;;;;;;14.45;6.95;;;;;;;13.96;96.75;100470.88;5013740;28;20087;-88
2021/08/21 03:27:26;;;;;;;15.00;6.53;;;;;;;13.77;96.66;100435.50;5020614;28;20448;-84
2021/08/21 03:29:51;;;;;;;16.08;7.45;;;;;;;14.00;96.86;100462.16;5011480;28;20079;-87
2021/08/21 03:32:17;;;;;;;12.95;5.68;;;;;;;13.99;96.38;100455.09;5008520;28;20040;-84
2021/08/21 03:34:43;;;;;;;9.45;5.03;;;;;;;14.00;96.39;100455.94;5019874;28;20025;-87
2021/08/21 03:37:10;;;;;;;11.18;5.40;;;;;;;14.07;96.64;100475.69;5014226;28;20432;-85
2021/08/21 03:39:36;;;;;;;13.52;5.90;;;;;;;13.99;96.50;100457.78;5021925;28;20407;-85
2021/08/21 03:42:01;;;;;;;10.65;5.60;;;;;;;14.00;96.39;100445.13;5009164;28;20018;-86
2021/08/21 03:44:27;;;;;;;8.30;4.78;;;;;;;13.96;96.30;100444.69;5001675;28;20041;-86
2021/08/21 03:46:52;;;;;;;11.43;4.95;;;;;;;14.01;95.93;100439.50;5006395;28;20038;-87
2021/08/21 03:49:18;;;;;;;13.65;5.22;;;;;;;14.00;96.28;100440.53;5011277;28;20095;-86
2021/08/21 03:51:44;;;;;;;13.38;5.15;;;;;;;13.97;96.12;100432.84;5029742;28;20455;-87
2021/08/21 03:54:10;;;;;;;13.38;5.45;;;;;;;13.82;96.11;100407.88;5030868;28;20032;-87
2021/08/21 03:56:35;;;;;;;12.60;5.43;;;;;;;13.80;96.34;100413.47;5013205;28;20037;-87
2021/08/21 03:59:01;;;;;;;10.75;4.65;;;;;;;13.77;96.43;100407.66;5009070;28;20414;-87
2021/08/21 04:01:26;;;;;;;15.75;5.60;;;;;;;13.90;96.55;100429.31;5014067;28;20056;-87
2021/08/21 04:03:52;;;;;;;11.93;4.80;;;;;;;13.84;96.39;100422.84;5029964;28;20026;-85
2021/08/21 04:06:19;;;;;;;10.85;4.88;;;;;;;13.87;96.14;100432.41;5019211;28;20361;-85
2021/08/21 04:08:45;;;;;;;11.35;4.95;;;;;;;13.86;96.23;100425.34;5027218;28;20056;-86
2021/08/21 04:11:10;;;;;;;10.80;4.68;;;;;;;13.83;96.31;100428.44;5018395;28;20049;-85
2021/08/21 04:13:36;;;;;;;17.15;5.43;;;;;;;13.82;96.35;100411.41;5022181;28;20035;-87
2021/08/21 04:16:01;;;;;;;10.27;4.82;;;;;;;13.80;96.45;100424.28;5030576;28;20022;-87
2021/08/21 04:18:27;;;;;;;10.27;5.18;;;;;;;13.74;96.70;100413.47;5019522;28;20464;-87
2021/08/21 04:20:53;;;;;;;10.68;5.28;;;;;;;13.77;96.41;100419.28;5020725;28;20383;-86
2021/08/21 04:23:18;;;;;;;10.18;5.25;;;;;;;13.70;96.51;100420.31;5031397;28;20072;-85
2021/08/21 04:25:44;;;;;;;11.18;5.35;;;;;;;13.70;96.65;100421.16;5014272;28;20084;-87
2021/08/21 04:28:09;;;;;;;15.32;5.40;;;;;;;13.51;96.57;100393.06;5034497;28;20021;-87
2021/08/21 04:30:35;;;;;;;10.93;4.88;;;;;;;13.66;96.79;100413.66;5032414;28;20083;-85
2021/08/21 04:33:01;;;;;;;9.75;5.72;;;;;;;13.54;96.82;100392.63;5018044;28;20083;-85
2021/08/21 04:35:27;;;;;;;11.68;5.25;;;;;;;13.48;97.00;100385.34;5021286;28;20041;-87
2021/08/21 04:37:52;;;;;;;11.30;5.35;;;;;;;13.49;96.83;100384.31;5016507;28;20466;-86
2021/08/21 04:40:20;;;;;;;13.05;5.53;;;;;;;13.62;97.23;100403.25;5012280;28;20013;-85
2021/08/21 04:42:46;;;;;;;12.43;4.90;;;;;;;13.46;97.18;100375.78;5017998;28;20029;-87
2021/08/21 04:45:12;;;;;;;12.43;5.05;;;;;;;13.68;97.12;100392.66;5000802;28;20021;-86
2021/08/21 04:47:38;;;;;;;8.93;4.60;;;;;;;13.73;97.20;100414.50;5015862;28;20044;-85
2021/08/21 04:50:05;;;;;;;9.63;5.20;;;;;;;13.63;97.25;100391.44;5026983;28;20025;-86
2021/08/21 04:52:30;;;;;;;12.00;5.63;;;;;;;13.70;97.16;100406.81;5029715;28;20377;-89
2021/08/21 04:54:57;;;;;;;11.32;5.35;;;;;;;13.72;97.36;100410.16;5009545;28;20028;-86
2021/08/21 04:57:22;;;;;;;14.20;5.80;;;;;;;13.72;97.35;100402.03;5042390;28;20025;-87
2021/08/21 04:59:48;;;;;;;11.57;5.70;;;;;;;13.75;97.33;100405.16;5032673;28;20476;-87
2021/08/21 05:02:14;;;;;;;10.18;5.03;;;;;;;13.77;97.51;100400.38;5042001;28;20105;-88
2021/08/21 05:04:40;;;;;;;12.70;5.22;;;;;;;13.79;97.52;100406.41;5025220;28;20044;-88
2021/08/21 05:07:06;;;;;;;11.65;5.45;;;;;;;13.86;97.07;100411.81;5032554;28;20499;-87
2021/08/21 05:09:32;;;;;;;14.35;5.63;;;;;;;13.70;97.22;100385.19;5003598;28;20033;-87
2021/08/21 05:11:57;;;;;;;14.00;5.72;;;;;;;13.87;97.24;100413.50;5005149;28;20033;-85
2021/08/21 05:14:23;;;;;;;12.32;5.07;;;;;;;13.85;97.45;100405.59;5027166;28;20029;-85
2021/08/21 05:16:50;;;;;;;14.45;5.07;;;;;;;13.87;97.34;100401.88;5019460;28;20037;-86
2021/08/21 05:22:21;;;;;;;10.15;5.28;;;;;;;13.98;97.27;100410.19;5024426;28;20063;-87
2021/08/21 05:24:47;;;;;;;10.10;5.00;;;;;;;13.96;97.15;100409.53;5040205;28;20025;-86
2021/08/21 05:27:12;;;;;;;13.02;5.45;;;;;;;13.97;97.30;100407.66;5039965;28;20060;-85
2021/08/21 05:29:38;;;;;;;9.95;4.97;;;;;;;13.99;97.18;100411.81;5040594;28;20084;-85
2021/08/21 05:32:05;;;;;;;12.75;4.90;;;;;;;14.01;97.26;100414.34;5033378;28;20531;-87
2021/08/21 05:34:30;;;;;;;11.40;5.25;;;;;;;13.97;97.31;100416.63;5037239;28;20025;-87
2021/08/21 05:36:56;;;;;;;9.63;5.20;;;;;;;13.82;97.24;100388.97;5040572;28;20025;-88
2021/08/21 05:39:22;;;;;;;11.85;5.32;;;;;;;13.98;97.26;100412.06;5038934;28;20077;-87
2021/08/21 05:41:47;;;;;;;7.75;4.85;;;;;;;13.96;97.44;100406.84;5041077;28;20029;-88
2021/08/21 05:44:13;;;;;;;12.23;5.97;;;;;;;13.97;97.17;100415.78;5039236;28;20085;-84
2021/08/21 05:46:39;;;;;;;10.13;5.78;;;;;;;13.92;97.48;100410.16;5040496;28;20025;-86
2021/08/21 05:49:04;;;;;;;11.40;5.10;;;;;;;13.98;97.68;100418.28;5024233;28;20021;-87
2021/08/21 05:51:30;;;;;;;10.15;5.10;;;;;;;14.04;97.51;100416.63;5023265;28;20542;-86
2021/08/21 05:53:59;;;;;;;10.75;4.93;;;;;;;13.98;97.63;100404.78;5023126;28;20036;-85
2021/08/21 05:56:25;;;;;;;11.38;5.55;;;;;;;13.96;97.64;100406.84;5025616;28;20049;-86
2021/08/21 05:58:51;;;;;;;11.82;5.40;;;;;;;14.04;97.57;100419.31;5010502;28;20098;-87
2021/08/21 06:01:17;;;;;;;9.20;4.57;;;;;;;13.87;97.74;100391.88;5037294;28;20030;-86
2021/08/21 06:03:42;;;;;;;9.90;4.97;;;;;;;13.81;97.68;100381.88;5040009;28;20515;-88
2021/08/21 06:06:12;;;;;;;16.75;5.65;;;;;;;13.99;97.76;100406.41;5034468;28;20037;-84
2021/08/21 06:08:41;;;;;;;9.25;4.72;;;;;;;14.03;97.62;100412.28;5022254;28;20387;-84
2021/08/21 06:11:06;;;;;;;10.10;4.18;;;;;;;14.06;97.90;100412.69;5040204;28;20389;-86
2021/08/21 06:13:32;;;;;;;9.38;4.40;;;;;;;14.07;97.43;100411.63;5040228;28;20029;-87
2021/08/21 06:15:59;;;;;;;8.02;3.92;;;;;;;14.14;97.26;100417.06;5037806;28;20105;-86
2021/08/21 06:18:24;;;;;;;9.63;4.60;;;;;;;14.05;97.28;100400.22;5035355;28;20025;-86
2021/08/21 06:20:50;;;;;;;11.43;5.25;;;;;;;14.21;97.22;100425.16;5040610;28;20555;-86
2021/08/21 06:23:16;;;;;;;10.20;4.68;;;;;;;14.20;96.98;100423.50;5023463;28;20036;-86
2021/08/21 06:25:41;;;;;;;9.98;4.30;;;;;;;14.08;96.94;100396.25;5036623;28;20415;-87
2021/08/21 06:28:07;;;;;;;13.55;4.53;;;;;;;14.26;97.01;100433.47;5040602;28;20030;-87
2021/08/21 06:30:33;;;;;;;8.45;3.90;;;;;;;14.28;97.00;100434.09;5036252;28;20052;-87
2021/08/21 06:32:59;;;;;;;12.35;4.25;;;;;;;14.37;96.62;100445.53;5032067;28;20487;-85
2021/08/21 06:35:24;;;;;;;8.57;4.43;;;;;;;14.40;97.23;100439.75;5004292;28;20049;-86
2021/08/21 06:37:50;;;;;;;11.10;4.68;;;;;;;14.41;97.08;100435.97;5011020;28;20028;-85
2021/08/21 06:40:15;;;;;;;10.00;4.85;;;;;;;14.37;96.89;100430.16;5009755;28;20017;-86
2021/08/21 06:42:41;;;;;;;8.60;4.18;;;;;;;14.48;97.15;100439.53;5021505;28;20026;-86
2021/08/21 06:45:08;;;;;;;8.90;4.18;;;;;;;14.52;97.00;100457.84;5029633;28;20681;-86
2021/08/21 06:47:34;;;;;;;6.43;3.47;;;;;;;14.50;96.82;100442.81;5013082;28;20025;-85
2021/08/21 06:50:01;;;;;;;9.40;4.13;;;;;;;14.54;96.65;100440.59;5033745;28;20013;-86
2021/08/21 06:52:27;;;;;;;6.68;3.33;;;;;;;14.54;96.81;100446.81;5020018;28;20029;-85
2021/08/21 06:54:52;;;;;;;6.15;3.63;;;;;;;14.56;96.79;100441.22;5007093;28;20036;-87
2021/08/21 06:57:18;;;;;;;6.10;3.85;;;;;;;14.52;96.80;100430.78;5018252;28;20051;-86
2021/08/21 06:59:44;;;;;;;7.53;3.70;;;;;;;14.66;97.05;100455.13;5033418;28;20179;-86
2021/08/21 07:02:09;;;;;;;7.63;3.65;;;;;;;14.68;96.97;100450.34;5016178;28;20025;-87
2021/08/21 07:04:35;;;;;;;7.43;4.10;;;;;;;14.50;96.94;100407.66;5023913;28;20087;-84
2021/08/21 07:07:02;;;;;;;8.48;3.30;;;;;;;14.77;96.93;100451.78;5035013;28;20037;-85
2021/08/21 07:09:27;;;;;;;6.60;3.90;;;;;;;14.54;97.02;100416.25;5022702;28;20049;-88
2021/08/21 07:11:53;;;;;;;6.70;4.20;;;;;;;14.78;97.57;100448.03;5017780;28;20030;-87
2021/08/21 07:14:19;;;;;;;7.55;3.80;;;;;;;14.59;97.06;100419.97;5032594;28;20022;-86
2021/08/21 07:16:45;;;;;;;6.00;3.58;;;;;;;14.75;97.14;100445.75;5000855;28;20268;-88
2021/08/21 07:19:10;;;;;;;8.52;3.88;;;;;;;14.81;97.35;100458.44;5031982;28;20092;-87
2021/08/21 07:21:36;;;;;;;7.82;3.45;;;;;;;14.57;97.27;100408.53;5037409;28;20108;-85
2021/08/21 07:24:02;;;;;;;9.95;3.53;;;;;;;14.70;97.36;100432.84;5032661;28;20117;-85
2021/08/21 07:26:29;;;;;;;7.93;3.67;;;;;;;14.76;97.19;100433.06;5016865;28;20017;-86
2021/08/21 07:28:54;;;;;;;7.63;3.65;;;;;;;14.90;97.20;100446.34;5038780;28;20119;-86
2021/08/21 07:31:20;;;;;;;7.60;3.70;;;;;;;14.81;97.34;100417.84;5038616;28;20077;-87
2021/08/21 07:33:45;;;;;;;9.43;3.72;;;;;;;15.04;97.21;100449.03;5015041;28;20041;-86
2021/08/21 07:36:11;;;;;;;7.60;3.40;;;;;;;15.14;97.18;100454.84;5013930;28;20484;-86
2021/08/21 07:38:37;;;;;;;8.98;3.60;;;;;;;15.25;97.12;100459.56;4988687;28;20136;-86
2021/08/21 07:41:03;;;;;;;5.95;3.30;;;;;;;15.34;96.86;100462.88;5028859;28;20027;-83
2021/08/21 07:43:28;;;;;;;7.50;3.17;;;;;;;15.45;96.89;100459.47;5016153;28;20021;-84
2021/08/21 07:45:54;;;;;;;9.70;3.40;;;;;;;15.54;96.56;100457.38;5031695;28;20030;-84
2021/08/21 07:48:20;;;;;;;6.30;3.42;;;;;;;15.63;96.50;100466.91;5031193;28;20029;-85
2021/08/21 07:50:46;;;;;;;5.43;3.30;;;;;;;15.68;95.99;100467.09;5029994;28;20454;-84
2021/08/21 07:53:12;;;;;;;10.98;5.50;;;;;;;15.77;95.54;100473.97;4997152;28;20065;-85
2021/08/21 07:55:38;;;;;;;8.20;5.00;;;;;;;15.82;95.02;100471.44;5015513;28;20685;-86
2021/08/21 07:58:04;;;;;;;6.80;3.35;;;;;;;15.90;94.85;100489.31;5034503;28;20044;-85
2021/08/21 08:00:31;;;;;;;5.45;3.65;;;;;;;15.98;94.54;100489.09;5019052;28;20119;-85
2021/08/21 08:02:57;;;;;;;6.70;2.85;;;;;;;15.96;94.65;100485.75;5001027;28;20021;-86
2021/08/21 08:05:22;;;;;;;5.40;2.67;;;;;;;15.92;94.37;100489.94;5026169;28;20403;-83
2021/08/21 08:07:48;;;;;;;7.68;3.25;;;;;;;15.91;94.26;100498.31;5017470;28;20029;-86
2021/08/21 08:10:13;;;;;;;4.93;2.55;;;;;;;15.89;94.39;100498.50;5031302;28;20076;-84
2021/08/21 08:12:39;;;;;;;6.30;2.95;;;;;;;15.90;94.19;100500.16;5006507;28;20029;-84
2021/08/21 08:15:06;;;;;;;5.07;2.42;;;;;;;15.91;94.34;100495.59;5043198;28;20021;-86
2021/08/21 08:17:31;;;;;;;5.18;2.50;;;;;;;15.99;94.51;100495.34;5016671;28;20029;-84
2021/08/21 08:19:57;;;;;;;4.90;2.67;;;;;;;16.03;93.93;100497.38;4992103;28;20028;-86
2021/08/21 08:22:24;;;;;;;4.95;2.30;;;;;;;16.07;93.44;100488.81;5014672;28;20021;-87
2021/08/21 08:24:49;;;;;;;4.20;2.47;;;;;;;16.22;93.16;100506.44;5024334;28;20030;-85
2021/08/21 08:27:15;;;;;;;5.10;2.85;;;;;;;16.28;92.65;100504.75;5012663;28;20364;-84
2021/08/21 08:29:41;;;;;;;6.43;2.72;;;;;;;16.35;92.42;100501.97;5031841;28;20017;-84
2021/08/21 08:32:07;;;;;;;6.43;2.70;;;;;;;16.44;92.20;100514.22;5017128;28;20030;-84
2021/08/21 08:34:33;;;;;;;5.93;2.95;;;;;;;16.44;91.92;100514.22;5033662;28;20644;-86
2021/08/21 08:36:59;;;;;;;5.78;3.40;;;;;;;16.44;91.86;100516.94;5010282;28;20059;-87
2021/08/21 08:39:24;;;;;;;5.72;2.80;;;;;;;16.39;91.87;100508.63;5031960;28;20021;-85
2021/08/21 08:41:51;;;;;;;4.97;2.50;;;;;;;16.38;91.68;100509.66;5017098;28;20044;-85
2021/08/21 08:44:18;;;;;;;7.32;3.13;;;;;;;16.21;91.03;100487.66;5009805;28;20507;-85
2021/08/21 08:46:44;;;;;;;6.03;2.85;;;;;;;16.37;90.44;100522.41;5032069;28;20661;-85
2021/08/21 08:49:10;;;;;;;4.93;2.50;;;;;;;16.20;89.91;100505.84;5031588;28;20036;-84
2021/08/21 08:51:36;;;;;;;7.90;3.00;;;;;;;16.37;89.58;100513.44;5026151;28;20040;-85
2021/08/21 08:54:02;;;;;;;6.13;2.60;;;;;;;16.43;89.36;100515.25;5012789;28;20029;-86
2021/08/21 08:56:28;;;;;;;7.00;3.05;;;;;;;16.47;89.80;100525.47;5011939;28;20071;-86
2021/08/21 08:58:54;;;;;;;5.47;3.42;;;;;;;16.37;89.79;100511.53;5015147;28;20061;-85
2021/08/21 09:01:20;;;;;;;7.22;3.38;;;;;;;16.48;89.65;100529.84;5030390;28;20029;-85
2021/08/21 09:03:47;;;;;;;6.80;3.15;;;;;;;16.65;89.16;100543.69;5019502;28;20040;-85
2021/08/21 09:06:13;;;;;;;6.07;3.33;;;;;;;16.84;87.89;100506.59;5031442;28;20025;-86
2021/08/21 09:08:40;;;;;;;6.18;2.90;;;;;;;17.31;87.13;100525.16;5029476;28;20116;-85
2021/08/21 09:11:23;;;;;;;7.43;3.25;;;;;;;17.73;85.25;100520.66;5011650;28;20033;-86
2021/08/21 09:13:48;;;;;;;;;;;;;;;17.88;85.49;100527.63;4996868;28;20471;-85
2021/08/21 09:16:25;;;;;;;5.22;2.55;;;;;;;17.86;84.42;100525.16;5045761;28;19960;-87
2021/08/21 09:19:11;;;;;;;6.40;2.80;;;;;;;17.58;84.84;100539.25;5014241;28;20098;-85
2021/08/21 09:21:57;;;;;;;6.50;3.05;;;;;;;17.26;85.07;100533.16;5002033;28;21052;-85
2021/08/21 09:24:23;;;;;;;5.47;2.63;;;;;;;16.93;86.20;100520.72;5029923;28;20018;-85
2021/08/21 09:26:49;;;;;;;4.47;2.53;;;;;;;16.80;86.57;100527.09;5029753;28;20554;-85
2021/08/21 09:29:27;;;;;;;6.35;3.03;;;;;;;16.88;86.65;100547.69;5029078;28;20033;-85
2021/08/21 09:32:05;;;;;;;5.93;3.28;;;;;;;16.93;86.66;100553.31;5013316;28;20025;-85
2021/08/21 09:34:30;;;;;;;7.50;3.53;;;;;;;16.91;86.40;100544.56;5009447;28;20030;-84
2021/08/21 09:36:56;;;;;;;7.78;3.20;;;;;;;16.79;86.13;100516.47;5024964;28;20033;-85
2021/08/21 09:39:36;;;;;;;7.88;3.20;;;;;;;16.98;85.75;100537.16;4998346;28;20068;-85
2021/08/21 09:42:04;;;;;;;4.78;2.58;;;;;;;17.10;85.87;100551.69;5017090;28;20547;-85
2021/08/21 09:44:35;;;;;;;4.40;2.92;;;;;;;17.09;85.92;100566.34;5012810;28;20030;-84
2021/08/21 09:47:26;;;;;;;6.25;3.33;;;;;;;17.00;86.02;100562.22;5022976;28;20060;-84
2021/08/21 09:50:10;;;;;;;6.75;3.38;;;;;;;16.84;86.96;100573.66;5012516;28;20053;-86
2021/08/21 09:52:36;;;;;;;8.75;3.33;;;;;;;16.60;87.10;100586.97;5009382;28;20033;-86
2021/08/21 09:55:16;;;;;;;11.20;4.05;;;;;;;16.33;88.04;100572.75;5024623;28;20391;-85
2021/08/21 09:57:42;;;;;;;7.95;3.47;;;;;;;16.25;88.77;100594.72;5024267;28;20121;-85
2021/08/21 10:00:08;;;;;;;8.43;3.33;;;;;;;16.10;89.46;100581.41;5012732;28;20018;-85
2021/08/21 10:02:34;;;;;;;6.65;3.13;;;;;;;16.05;89.81;100573.09;5026217;28;20088;-85
2021/08/21 10:05:01;;;;;;;7.03;3.22;;;;;;;16.37;90.12;100597.56;5023113;28;20026;-84
2021/08/21 10:07:37;;;;;;;6.25;3.08;;;;;;;16.52;90.02;100592.66;5005346;28;20484;-85
2021/08/21 10:10:07;;;;;;;8.38;3.13;;;;;;;16.64;90.41;100604.47;5010790;28;20091;-85
2021/08/21 10:12:35;;;;;;;8.57;3.90;;;;;;;16.55;89.69;100597.66;5026572;28;20080;-85
2021/08/21 10:15:01;;;;;;;10.85;4.03;;;;;;;16.57;89.90;100598.25;5012967;28;20036;-84
2021/08/21 10:17:27;;;;;;;9.45;3.50;;;;;;;16.56;89.51;100590.31;5028648;28;20112;-85
2021/08/21 10:19:54;;;;;;;7.05;3.47;;;;;;;16.69;88.25;100601.09;5019337;28;20668;-86
2021/08/21 10:22:25;;;;;;;8.75;4.70;;;;;;;16.78;88.05;100594.38;4998335;28;20160;-84
2021/08/21 10:24:52;;;;;;;6.32;3.58;;;;;;;16.88;88.50;100572.16;5016282;28;20030;-85
2021/08/21 10:27:26;;;;;;;6.25;3.75;;;;;;;17.17;88.15;100596.97;5023021;28;20021;-83
2021/08/21 10:30:06;;;;;;;8.75;4.97;;;;;;;17.28;86.92;100598.94;5014317;28;20100;-86
2021/08/21 10:32:36;;;;;;;9.88;4.07;;;;;;;17.24;86.09;100603.19;5028933;28;20041;-86
2021/08/21 10:35:03;;;;;;;5.38;3.65;;;;;;;17.19;85.64;100594.88;5029496;28;20026;-85
2021/08/21 10:37:33;;;;;;;10.70;3.88;;;;;;;17.25;86.45;100604.84;5011040;28;20021;-85
2021/08/21 10:39:59;;;;;;;7.45;3.30;;;;;;;17.31;86.16;100601.25;5027922;28;20045;-85
2021/08/21 10:42:34;;;;;;;7.40;3.40;;;;;;;17.35;85.63;100597.00;5008028;28;20061;-85
2021/08/21 10:45:00;;;;;;;5.68;2.75;;;;;;;17.39;85.33;100600.13;5006843;28;20610;-84
2021/08/21 10:47:32;;;;;;;7.93;3.00;;;;;;;17.63;85.90;100606.56;4996058;28;20022;-85
2021/08/21 10:50:13;;;;;;;9.52;2.92;;;;;;;17.77;84.95;100606.16;5025551;28;20091;-86
2021/08/21 10:52:49;;;;;;;5.43;2.55;;;;;;;17.85;83.46;100601.53;5019976;28;20049;-85
2021/08/21 10:55:20;;;;;;;4.97;2.80;;;;;;;17.80;84.33;100600.28;5011339;28;20025;-84
2021/08/21 10:58:13;;;;;;;4.88;2.40;;;;;;;17.81;84.14;100612.03;5026208;28;20030;-86
2021/08/21 11:00:39;;;;;;;7.65;2.40;;;;;;;17.74;83.85;100619.41;5012782;28;20507;-85
2021/08/21 11:03:05;;;;;;;8.10;2.90;;;;;;;17.58;84.55;100599.91;5011369;28;20056;-84
2021/08/21 11:06:01;;;;;;;6.93;2.22;;;;;;;17.52;84.02;100614.41;5020239;28;20112;-86
2021/08/21 11:08:28;;;;;;;9.48;2.95;;;;;;;17.42;83.49;100607.81;4990598;28;20021;-86
2021/08/21 11:14:01;;;;;;;4.90;2.05;;;;;;;17.46;83.00;100618.00;5025851;28;20064;-85
2021/08/21 11:16:50;;;;;;;5.30;2.30;;;;;;;17.70;82.21;100608.16;5027564;28;20091;-85
2021/08/21 11:19:22;;;;;;;5.20;1.88;;;;;;;17.94;81.54;100613.75;5031334;28;20379;-85
2021/08/21 11:21:49;;;;;;;6.57;2.33;;;;;;;18.27;80.86;100607.88;5012073;28;20048;-87
2021/08/21 11:24:24;;;;;;;6.90;1.92;;;;;;;18.76;79.83;100610.53;5014141;28;20104;-86
2021/08/21 11:27:12;;;;;;;5.30;2.00;;;;;;;18.85;79.12;100609.97;4997524;28;20327;-86
2021/08/21 11:32:45;;;;;;;7.90;2.17;;;;;;;19.25;76.09;100617.47;5029149;28;20049;-86